sensor_id;sensor_type;location;lat;lon;timestamp;pressure;altitude;pressure_sealevel;temperature;humidity
22653;BME280;11493;43.344;26.226;2024-03-02T00:00:28;99013.47;;;8.33;100.00
22653;BME280;11493;43.344;26.226;2024-03-02T00:02:55;99009.50;;;8.25;100.00
22653;BME280;11493;43.344;26.226;2024-03-02T00:05:22;98995.00;;;8.25;100.00
22653;BME280;11493;43.344;26.226;2024-03-02T00:07:54;99011.56;;;8.34;100.00
22653;BME280;11493;43.344;26.226;2024-03-02T00:10:39;99002.91;;;8.40;100.00
22653;BME280;11493;43.344;26.226;2024-03-02T00:13:12;98984.22;;;8.42;100.00
22653;BME280;11493;43.344;26.226;2024-03-02T00:15:47;98985.81;;;8.57;100.00
22653;BME280;11493;43.344;26.226;2024-03-02T00:18:23;98985.09;;;8.51;100.00
22653;BME280;11493;43.344;26.226;2024-03-02T00:20:55;98992.22;;;8.52;100.00
22653;BME280;11493;43.344;26.226;2024-03-02T00:23:24;98996.88;;;8.52;100.00
22653;BME280;11493;43.344;26.226;2024-03-02T00:25:54;98979.81;;;8.55;100.00
22653;BME280;11493;43.344;26.226;2024-03-02T00:28:35;98974.50;;;8.36;100.00
22653;BME280;11493;43.344;26.226;2024-03-02T00:31:09;98976.81;;;8.43;100.00
22653;BME280;11493;43.344;26.226;2024-03-02T00:33:48;98978.13;;;8.32;100.00
22653;BME280;11493;43.344;26.226;2024-03-02T00:36:22;98970.44;;;8.20;100.00
22653;BME280;11493;43.344;26.226;2024-03-02T00:38:50;98965.41;;;8.13;100.00
22653;BME280;11493;43.344;26.226;2024-03-02T00:41:23;98967.19;;;8.18;100.00
22653;BME280;11493;43.344;26.226;2024-03-02T00:46:29;98969.47;;;8.16;100.00
22653;BME280;11493;43.344;26.226;2024-03-02T00:49:01;98960.53;;;8.10;100.00
22653;BME280;11493;43.344;26.226;2024-03-02T00:51:32;98971.69;;;8.14;100.00
22653;BME280;11493;43.344;26.226;2024-03-02T00:54:00;98966.63;;;8.07;100.00
22653;BME280;11493;43.344;26.226;2024-03-02T00:56:28;98955.25;;;8.14;100.00
22653;BME280;11493;43.344;26.226;2024-03-02T00:58:55;98931.44;;;8.01;100.00
22653;BME280;11493;43.344;26.226;2024-03-02T01:01:22;98948.16;;;7.99;100.00
22653;BME280;11493;43.344;26.226;2024-03-02T01:03:49;98942.88;;;8.03;100.00
22653;BME280;11493;43.344;26.226;2024-03-02T01:06:17;98941.84;;;8.12;100.00
22653;BME280;11493;43.344;26.226;2024-03-02T01:08:44;98946.75;;;8.02;100.00
22653;BME280;11493;43.344;26.226;2024-03-02T01:11:11;98934.47;;;7.99;100.00
22653;BME280;11493;43.344;26.226;2024-03-02T01:13:38;98942.28;;;7.92;100.00
22653;BME280;11493;43.344;26.226;2024-03-02T01:16:05;98948.28;;;7.94;100.00
22653;BME280;11493;43.344;26.226;2024-03-02T01:18:32;98941.78;;;7.90;100.00
22653;BME280;11493;43.344;26.226;2024-03-02T01:21:00;98948.97;;;8.00;100.00
22653;BME280;11493;43.344;26.226;2024-03-02T01:23:28;98940.66;;;8.05;100.00
22653;BME280;11493;43.344;26.226;2024-03-02T01:25:55;98918.53;;;8.01;100.00
22653;BME280;11493;43.344;26.226;2024-03-02T01:28:22;98946.72;;;8.15;100.00
22653;BME280;11493;43.344;26.226;2024-03-02T01:30:49;98943.22;;;8.23;100.00
22653;BME280;11493;43.344;26.226;2024-03-02T01:33:17;98930.63;;;8.22;100.00
22653;BME280;11493;43.344;26.226;2024-03-02T01:35:45;98930.28;;;8.15;100.00
22653;BME280;11493;43.344;26.226;2024-03-02T01:38:11;98933.06;;;8.24;100.00
22653;BME280;11493;43.344;26.226;2024-03-02T01:40:39;98936.72;;;8.19;100.00
22653;BME280;11493;43.344;26.226;2024-03-02T01:43:06;98939.47;;;8.19;100.00
22653;BME280;11493;43.344;26.226;2024-03-02T01:45:35;98918.19;;;8.16;100.00
22653;BME280;11493;43.344;26.226;2024-03-02T01:48:05;98923.84;;;8.20;100.00
22653;BME280;11493;43.344;26.226;2024-03-02T01:50:34;98925.34;;;8.26;100.00
22653;BME280;11493;43.344;26.226;2024-03-02T01:53:01;98938.25;;;8.25;100.00
22653;BME280;11493;43.344;26.226;2024-03-02T01:55:30;98927.38;;;8.34;100.00
22653;BME280;11493;43.344;26.226;2024-03-02T01:57:57;98922.47;;;8.45;100.00
22653;BME280;11493;43.344;26.226;2024-03-02T02:00:25;98931.59;;;8.54;100.00
22653;BME280;11493;43.344;26.226;2024-03-02T02:02:53;98918.72;;;8.41;100.00
22653;BME280;11493;43.344;26.226;2024-03-02T02:05:21;98928.38;;;8.38;100.00
22653;BME280;11493;43.344;26.226;2024-03-02T02:07:48;98918.72;;;8.41;100.00
22653;BME280;11493;43.344;26.226;2024-03-02T02:10:15;98905.47;;;8.34;100.00
22653;BME280;11493;43.344;26.226;2024-03-02T02:12:43;98915.19;;;8.40;100.00
22653;BME280;11493;43.344;26.226;2024-03-02T02:15:29;98912.66;;;8.30;100.00
22653;BME280;11493;43.344;26.226;2024-03-02T02:17:58;98928.22;;;8.21;100.00
22653;BME280;11493;43.344;26.226;2024-03-02T02:20:26;98932.13;;;8.29;100.00
22653;BME280;11493;43.344;26.226;2024-03-02T02:23:00;98924.00;;;8.15;100.00
22653;BME280;11493;43.344;26.226;2024-03-02T02:25:28;98924.97;;;8.19;100.00
22653;BME280;11493;43.344;26.226;2024-03-02T02:27:55;98927.38;;;8.34;100.00
22653;BME280;11493;43.344;26.226;2024-03-02T02:30:27;98915.19;;;8.40;100.00
22653;BME280;11493;43.344;26.226;2024-03-02T02:32:55;98911.19;;;8.46;100.00
22653;BME280;11493;43.344;26.226;2024-03-02T02:35:22;98917.22;;;8.35;100.00
22653;BME280;11493;43.344;26.226;2024-03-02T02:37:52;98917.00;;;8.31;100.00
22653;BME280;11493;43.344;26.226;2024-03-02T02:40:20;98918.63;;;8.32;100.00
22653;BME280;11493;43.344;26.226;2024-03-02T02:42:47;98916.81;;;8.41;100.00
22653;BME280;11493;43.344;26.226;2024-03-02T02:45:15;98923.22;;;8.37;100.00
22653;BME280;11493;43.344;26.226;2024-03-02T02:47:43;98918.63;;;8.32;100.00
22653;BME280;11493;43.344;26.226;2024-03-02T02:50:11;98905.47;;;8.34;100.00
22653;BME280;11493;43.344;26.226;2024-03-02T02:52:40;98914.00;;;8.33;100.00
22653;BME280;11493;43.344;26.226;2024-03-02T02:55:12;98915.19;;;8.27;100.00
22653;BME280;11493;43.344;26.226;2024-03-02T02:57:40;98911.94;;;8.38;100.00
22653;BME280;11493;43.344;26.226;2024-03-02T03:00:14;98906.47;;;8.38;100.00
22653;BME280;11493;43.344;26.226;2024-03-02T03:02:46;98893.28;;;8.27;100.00
22653;BME280;11493;43.344;26.226;2024-03-02T03:05:15;98907.78;;;8.27;100.00
22653;BME280;11493;43.344;26.226;2024-03-02T03:07:42;98888.22;;;8.20;100.00
22653;BME280;11493;43.344;26.226;2024-03-02T03:10:11;98900.81;;;8.21;100.00
22653;BME280;11493;43.344;26.226;2024-03-02T03:12:38;98898.63;;;8.32;100.00
22653;BME280;11493;43.344;26.226;2024-03-02T03:15:08;98904.44;;;8.30;100.00
22653;BME280;11493;43.344;26.226;2024-03-02T03:17:35;98901.50;;;8.27;100.00
22653;BME280;11493;43.344;26.226;2024-03-02T03:20:04;98896.91;;;8.36;100.00
22653;BME280;11493;43.344;26.226;2024-03-02T03:22:32;98901.19;;;8.28;100.00
22653;BME280;11493;43.344;26.226;2024-03-02T03:24:59;98907.91;;;8.22;100.00
22653;BME280;11493;43.344;26.226;2024-03-02T03:27:27;98912.72;;;8.16;100.00
22653;BME280;11493;43.344;26.226;2024-03-02T03:29:54;98910.91;;;8.12;100.00
22653;BME280;11493;43.344;26.226;2024-03-02T03:32:21;98909.16;;;8.16;100.00
22653;BME280;11493;43.344;26.226;2024-03-02T03:34:50;98913.19;;;8.18;100.00
22653;BME280;11493;43.344;26.226;2024-03-02T03:37:17;98917.22;;;8.35;100.00
22653;BME280;11493;43.344;26.226;2024-03-02T03:39:43;98914.00;;;8.33;100.00
22653;BME280;11493;43.344;26.226;2024-03-02T03:42:10;98905.03;;;8.27;100.00
22653;BME280;11493;43.344;26.226;2024-03-02T03:44:37;98890.09;;;8.11;100.00
22653;BME280;11493;43.344;26.226;2024-03-02T03:47:06;98922.41;;;8.36;100.00
22653;BME280;11493;43.344;26.226;2024-03-02T03:49:33;98910.06;;;8.47;100.00
22653;BME280;11493;43.344;26.226;2024-03-02T03:52:00;98899.59;;;8.49;100.00
22653;BME280;11493;43.344;26.226;2024-03-02T03:54:27;98904.47;;;8.52;100.00
22653;BME280;11493;43.344;26.226;2024-03-02T03:56:54;98912.44;;;8.63;100.00
22653;BME280;11493;43.344;26.226;2024-03-02T03:59:20;98911.47;;;8.59;100.00
22653;BME280;11493;43.344;26.226;2024-03-02T04:01:47;98903.84;;;8.55;100.00
22653;BME280;11493;43.344;26.226;2024-03-02T04:04:15;98900.72;;;8.48;100.00
22653;BME280;11493;43.344;26.226;2024-03-02T04:06:41;98912.56;;;8.57;100.00
22653;BME280;11493;43.344;26.226;2024-03-02T04:09:08;98902.72;;;8.56;100.00
22653;BME280;11493;43.344;26.226;2024-03-02T04:11:35;98903.97;;;8.50;100.00
22653;BME280;11493;43.344;26.226;2024-03-02T04:14:03;98869.56;;;8.44;100.00
22653;BME280;11493;43.344;26.226;2024-03-02T04:16:29;98901.84;;;8.47;100.00
22653;BME280;11493;43.344;26.226;2024-03-02T04:18:56;98913.31;;;8.49;100.00
22653;BME280;11493;43.344;26.226;2024-03-02T04:21:23;98918.19;;;8.52;100.00
22653;BME280;11493;43.344;26.226;2024-03-02T04:23:51;98922.28;;;8.41;100.00
22653;BME280;11493;43.344;26.226;2024-03-02T04:26:18;98916.41;;;8.34;100.00
22653;BME280;11493;43.344;26.226;2024-03-02T04:28:49;98907.78;;;8.27;100.00
22653;BME280;11493;43.344;26.226;2024-03-02T04:31:15;98906.66;;;8.28;100.00
22653;BME280;11493;43.344;26.226;2024-03-02T04:33:43;98913.56;;;8.25;100.00
22653;BME280;11493;43.344;26.226;2024-03-02T04:36:10;98907.78;;;8.27;100.00
22653;BME280;11493;43.344;26.226;2024-03-02T04:38:38;98913.75;;;8.29;100.00
22653;BME280;11493;43.344;26.226;2024-03-02T04:41:06;98914.50;;;8.35;100.00
22653;BME280;11493;43.344;26.226;2024-03-02T04:43:34;98923.09;;;8.42;100.00
22653;BME280;11493;43.344;26.226;2024-03-02T04:46:02;98914.56;;;8.43;100.00
22653;BME280;11493;43.344;26.226;2024-03-02T04:48:29;98916.50;;;8.43;100.00
22653;BME280;11493;43.344;26.226;2024-03-02T04:50:56;98918.31;;;8.47;100.00
22653;BME280;11493;43.344;26.226;2024-03-02T04:53:23;98912.69;;;8.52;100.00
22653;BME280;11493;43.344;26.226;2024-03-02T04:55:50;98906.41;;;8.52;100.00
22653;BME280;11493;43.344;26.226;2024-03-02T04:58:35;98896.19;;;8.44;100.00
22653;BME280;11493;43.344;26.226;2024-03-02T05:01:02;98901.72;;;8.52;100.00
22653;BME280;11493;43.344;26.226;2024-03-02T05:03:29;98910.16;;;8.56;100.00
22653;BME280;11493;43.344;26.226;2024-03-02T05:05:57;98912.50;;;8.49;100.00
22653;BME280;11493;43.344;26.226;2024-03-02T05:08:24;98896.13;;;8.35;100.00
22653;BME280;11493;43.344;26.226;2024-03-02T05:10:51;98901.09;;;8.33;100.00
22653;BME280;11493;43.344;26.226;2024-03-02T05:13:18;98881.69;;;8.30;100.00
22653;BME280;11493;43.344;26.226;2024-03-02T05:15:47;98894.06;;;8.41;100.00
22653;BME280;11493;43.344;26.226;2024-03-02T05:18:15;98912.50;;;8.49;100.00
22653;BME280;11493;43.344;26.226;2024-03-02T05:20:43;98905.59;;;8.51;100.00
22653;BME280;11493;43.344;26.226;2024-03-02T05:23:10;98905.09;;;8.49;100.00
22653;BME280;11493;43.344;26.226;2024-03-02T05:25:39;98900.72;;;8.48;100.00
22653;BME280;11493;43.344;26.226;2024-03-02T05:28:06;98904.22;;;8.63;100.00
22653;BME280;11493;43.344;26.226;2024-03-02T05:30:32;98932.16;;;8.65;100.00
22653;BME280;11493;43.344;26.226;2024-03-02T05:33:00;98943.63;;;8.67;100.00
22653;BME280;11493;43.344;26.226;2024-03-02T05:35:27;98926.66;;;8.65;100.00
22653;BME280;11493;43.344;26.226;2024-03-02T05:37:54;98930.53;;;8.64;100.00
22653;BME280;11493;43.344;26.226;2024-03-02T05:40:48;98924.59;;;8.70;100.00
22653;BME280;11493;43.344;26.226;2024-03-02T05:43:15;98919.06;;;8.84;100.00
22653;BME280;11493;43.344;26.226;2024-03-02T05:45:42;98926.53;;;8.70;100.00
22653;BME280;11493;43.344;26.226;2024-03-02T05:48:10;98934.75;;;8.70;100.00
22653;BME280;11493;43.344;26.226;2024-03-02T05:50:37;98935.38;;;8.67;100.00
22653;BME280;11493;43.344;26.226;2024-03-02T05:53:05;98932.09;;;8.78;100.00
22653;BME280;11493;43.344;26.226;2024-03-02T05:55:32;98923.28;;;8.90;100.00
22653;BME280;11493;43.344;26.226;2024-03-02T05:57:59;98928.84;;;8.76;100.00
22653;BME280;11493;43.344;26.226;2024-03-02T06:00:33;98935.13;;;8.77;100.00
22653;BME280;11493;43.344;26.226;2024-03-02T06:03:00;98940.00;;;8.80;100.00
22653;BME280;11493;43.344;26.226;2024-03-02T06:05:28;98935.13;;;8.77;100.00
22653;BME280;11493;43.344;26.226;2024-03-02T06:07:55;98934.34;;;8.76;100.00
22653;BME280;11493;43.344;26.226;2024-03-02T06:10:22;98936.56;;;8.74;100.00
22653;BME280;11493;43.344;26.226;2024-03-02T06:12:49;98932.34;;;8.68;100.00
22653;BME280;11493;43.344;26.226;2024-03-02T06:15:17;98957.03;;;8.91;100.00
22653;BME280;11493;43.344;26.226;2024-03-02T06:17:44;98947.16;;;8.89;100.00
22653;BME280;11493;43.344;26.226;2024-03-02T06:20:11;98937.84;;;8.99;100.00
22653;BME280;11493;43.344;26.226;2024-03-02T06:22:38;98958.28;;;9.15;100.00
22653;BME280;11493;43.344;26.226;2024-03-02T06:25:05;98943.00;;;9.01;100.00
22653;BME280;11493;43.344;26.226;2024-03-02T06:27:33;98962.16;;;9.14;100.00
22653;BME280;11493;43.344;26.226;2024-03-02T06:30:00;98964.31;;;9.26;100.00
22653;BME280;11493;43.344;26.226;2024-03-02T06:32:27;98939.28;;;9.28;100.00
22653;BME280;11493;43.344;26.226;2024-03-02T06:34:54;98956.94;;;9.35;100.00
22653;BME280;11493;43.344;26.226;2024-03-02T06:37:21;98946.81;;;9.44;100.00
22653;BME280;11493;43.344;26.226;2024-03-02T06:39:48;98927.53;;;9.36;100.00
22653;BME280;11493;43.344;26.226;2024-03-02T06:42:15;98952.28;;;9.44;100.00
22653;BME280;11493;43.344;26.226;2024-03-02T06:44:42;98947.47;;;9.50;100.00
22653;BME280;11493;43.344;26.226;2024-03-02T06:47:09;98945.84;;;9.49;100.00
22653;BME280;11493;43.344;26.226;2024-03-02T06:49:36;98945.81;;;9.40;100.00
22653;BME280;11493;43.344;26.226;2024-03-02T06:52:03;98906.13;;;9.15;100.00
22653;BME280;11493;43.344;26.226;2024-03-02T06:54:31;98936.84;;;9.57;100.00
22653;BME280;11493;43.344;26.226;2024-03-02T06:56:58;98937.00;;;9.69;100.00
22653;BME280;11493;43.344;26.226;2024-03-02T06:59:25;98919.75;;;9.77;100.00
22653;BME280;11493;43.344;26.226;2024-03-02T07:01:51;98937.56;;;9.88;100.00
22653;BME280;11493;43.344;26.226;2024-03-02T07:04:18;98927.69;;;9.79;100.00
22653;BME280;11493;43.344;26.226;2024-03-02T07:06:45;98927.03;;;9.82;100.00
22653;BME280;11493;43.344;26.226;2024-03-02T07:09:12;98947.72;;;9.79;100.00
22653;BME280;11493;43.344;26.226;2024-03-02T07:11:39;98947.06;;;9.82;100.00
22653;BME280;11493;43.344;26.226;2024-03-02T07:17:10;98934.34;;;9.95;100.00
22653;BME280;11493;43.344;26.226;2024-03-02T07:19:38;98944.38;;;10.00;100.00
22653;BME280;11493;43.344;26.226;2024-03-02T07:22:06;98931.28;;;10.05;100.00
22653;BME280;11493;43.344;26.226;2024-03-02T07:24:41;98920.16;;;10.19;100.00
22653;BME280;11493;43.344;26.226;2024-03-02T07:27:12;98921.41;;;9.96;100.00
22653;BME280;11493;43.344;26.226;2024-03-02T07:29:43;98932.09;;;10.06;100.00
22653;BME280;11493;43.344;26.226;2024-03-02T07:32:10;98938.38;;;9.98;100.00
22653;BME280;11493;43.344;26.226;2024-03-02T07:34:37;98925.81;;;10.14;100.00
22653;BME280;11493;43.344;26.226;2024-03-02T07:37:04;98924.72;;;10.32;100.00
22653;BME280;11493;43.344;26.226;2024-03-02T07:39:32;98922.63;;;10.38;100.00
22653;BME280;11493;43.344;26.226;2024-03-02T07:41:59;98930.06;;;10.29;100.00
22653;BME280;11493;43.344;26.226;2024-03-02T07:44:27;98936.22;;;10.34;100.00
22653;BME280;11493;43.344;26.226;2024-03-02T07:46:54;98950.25;;;10.41;100.00
22653;BME280;11493;43.344;26.226;2024-03-02T07:49:21;98938.13;;;10.60;100.00
22653;BME280;11493;43.344;26.226;2024-03-02T07:51:48;98940.41;;;10.49;100.00
22653;BME280;11493;43.344;26.226;2024-03-02T07:54:15;98933.44;;;10.51;100.00
22653;BME280;11493;43.344;26.226;2024-03-02T07:56:42;98922.75;;;10.59;100.00
22653;BME280;11493;43.344;26.226;2024-03-02T07:59:09;98921.28;;;10.78;100.00
22653;BME280;11493;43.344;26.226;2024-03-02T08:01:36;98924.03;;;10.87;100.00
22653;BME280;11493;43.344;26.226;2024-03-02T08:04:03;98919.19;;;10.84;100.00
22653;BME280;11493;43.344;26.226;2024-03-02T08:06:31;98921.28;;;10.87;100.00
22653;BME280;11493;43.344;26.226;2024-03-02T08:08:59;98907.50;;;10.87;100.00
22653;BME280;11493;43.344;26.226;2024-03-02T08:11:27;98936.94;;;11.12;100.00
22653;BME280;11493;43.344;26.226;2024-03-02T08:13:54;98926.75;;;10.96;100.00
22653;BME280;11493;43.344;26.226;2024-03-02T08:16:22;98920.16;;;10.71;100.00
22653;BME280;11493;43.344;26.226;2024-03-02T08:18:50;98918.34;;;10.92;100.00
22653;BME280;11493;43.344;26.226;2024-03-02T08:21:17;98910.47;;;11.20;100.00
22653;BME280;11493;43.344;26.226;2024-03-02T08:23:45;98904.63;;;11.30;100.00
22653;BME280;11493;43.344;26.226;2024-03-02T08:26:12;98910.53;;;11.49;100.00
22653;BME280;11493;43.344;26.226;2024-03-02T08:28:39;98906.19;;;11.40;100.00
22653;BME280;11493;43.344;26.226;2024-03-02T08:31:09;98903.94;;;11.42;100.00
22653;BME280;11493;43.344;26.226;2024-03-02T08:33:36;98898.22;;;11.47;100.00
22653;BME280;11493;43.344;26.226;2024-03-02T08:36:05;98901.09;;;11.59;100.00
22653;BME280;11493;43.344;26.226;2024-03-02T08:38:32;98918.81;;;11.88;100.00
22653;BME280;11493;43.344;26.226;2024-03-02T08:40:59;98914.63;;;11.81;100.00
22653;BME280;11493;43.344;26.226;2024-03-02T08:43:26;98917.25;;;11.78;100.00
22653;BME280;11493;43.344;26.226;2024-03-02T08:45:53;98918.22;;;11.73;100.00
22653;BME280;11493;43.344;26.226;2024-03-02T08:48:20;98918.84;;;11.41;100.00
22653;BME280;11493;43.344;26.226;2024-03-02T08:50:47;98909.56;;;11.54;100.00
22653;BME280;11493;43.344;26.226;2024-03-02T08:53:14;98905.56;;;11.72;100.00
22653;BME280;11493;43.344;26.226;2024-03-02T08:55:46;98915.72;;;12.10;100.00
22653;BME280;11493;43.344;26.226;2024-03-02T08:58:13;98904.81;;;11.93;100.00
22653;BME280;11493;43.344;26.226;2024-03-02T09:00:41;98915.28;;;11.78;100.00
22653;BME280;11493;43.344;26.226;2024-03-02T09:03:08;98926.88;;;11.93;100.00
22653;BME280;11493;43.344;26.226;2024-03-02T09:05:36;98926.88;;;11.93;100.00
22653;BME280;11493;43.344;26.226;2024-03-02T09:08:03;98931.03;;;11.99;100.00
22653;BME280;11493;43.344;26.226;2024-03-02T09:10:30;98938.41;;;12.15;100.00
22653;BME280;11493;43.344;26.226;2024-03-02T09:12:58;98939.75;;;12.09;100.00
22653;BME280;11493;43.344;26.226;2024-03-02T09:15:25;98934.81;;;11.94;100.00
22653;BME280;11493;43.344;26.226;2024-03-02T09:17:52;98941.78;;;11.92;100.00
22653;BME280;11493;43.344;26.226;2024-03-02T09:20:20;98925.19;;;12.00;100.00
22653;BME280;11493;43.344;26.226;2024-03-02T09:22:47;98937.63;;;11.86;100.00
22653;BME280;11493;43.344;26.226;2024-03-02T09:25:15;98931.81;;;12.08;100.00
22653;BME280;11493;43.344;26.226;2024-03-02T09:27:43;98943.44;;;12.13;100.00
22653;BME280;11493;43.344;26.226;2024-03-02T09:30:10;98944.00;;;12.48;100.00
22653;BME280;11493;43.344;26.226;2024-03-02T09:32:37;98949.94;;;12.38;100.00
22653;BME280;11493;43.344;26.226;2024-03-02T09:35:05;98942.53;;;12.30;100.00
22653;BME280;11493;43.344;26.226;2024-03-02T09:37:32;98952.22;;;12.36;99.53
22653;BME280;11493;43.344;26.226;2024-03-02T09:39:59;98935.53;;;12.33;97.77
22653;BME280;11493;43.344;26.226;2024-03-02T09:42:26;98945.50;;;12.46;98.64
22653;BME280;11493;43.344;26.226;2024-03-02T09:44:53;98945.28;;;12.51;97.61
22653;BME280;11493;43.344;26.226;2024-03-02T09:47:20;98944.81;;;12.28;99.15
22653;BME280;11493;43.344;26.226;2024-03-02T09:49:47;98953.91;;;12.49;97.51
22653;BME280;11493;43.344;26.226;2024-03-02T09:52:16;98948.69;;;12.69;97.47
22653;BME280;11493;43.344;26.226;2024-03-02T09:54:47;98930.50;;;12.68;96.59
22653;BME280;11493;43.344;26.226;2024-03-02T09:57:15;98947.66;;;12.94;94.45
22653;BME280;11493;43.344;26.226;2024-03-02T09:59:42;98949.91;;;12.80;94.98
22653;BME280;11493;43.344;26.226;2024-03-02T10:02:09;98956.91;;;12.77;95.86
22653;BME280;11493;43.344;26.226;2024-03-02T10:04:35;98940.97;;;12.95;94.30
22653;BME280;11493;43.344;26.226;2024-03-02T10:07:13;98932.91;;;12.57;97.21
22653;BME280;11493;43.344;26.226;2024-03-02T10:09:41;98956.75;;;12.95;95.09
22653;BME280;11493;43.344;26.226;2024-03-02T10:12:10;98947.56;;;13.24;95.14
22653;BME280;11493;43.344;26.226;2024-03-02T10:14:38;98944.22;;;13.42;92.75
22653;BME280;11493;43.344;26.226;2024-03-02T10:17:09;98946.44;;;13.37;92.67
22653;BME280;11493;43.344;26.226;2024-03-02T10:19:37;98947.81;;;13.55;90.75
22653;BME280;11493;43.344;26.226;2024-03-02T10:22:07;98941.59;;;13.46;91.88
22653;BME280;11493;43.344;26.226;2024-03-02T10:24:42;98928.81;;;13.29;91.96
22653;BME280;11493;43.344;26.226;2024-03-02T10:27:23;98922.81;;;13.27;92.55
22653;BME280;11493;43.344;26.226;2024-03-02T10:29:50;98916.13;;;13.40;92.26
22653;BME280;11493;43.344;26.226;2024-03-02T10:32:17;98924.34;;;13.61;91.40
22653;BME280;11493;43.344;26.226;2024-03-02T10:34:45;98917.19;;;13.85;90.08
22653;BME280;11493;43.344;26.226;2024-03-02T10:37:14;98925.84;;;13.71;89.90
22653;BME280;11493;43.344;26.226;2024-03-02T10:39:42;98917.66;;;13.87;88.88
22653;BME280;11493;43.344;26.226;2024-03-02T10:42:09;98912.56;;;14.01;87.57
22653;BME280;11493;43.344;26.226;2024-03-02T10:44:36;98920.84;;;14.13;87.46
22653;BME280;11493;43.344;26.226;2024-03-02T10:47:04;98914.59;;;14.16;87.30
22653;BME280;11493;43.344;26.226;2024-03-02T10:49:33;98910.53;;;14.38;85.73
22653;BME280;11493;43.344;26.226;2024-03-02T10:52:00;98902.53;;;14.61;84.75
22653;BME280;11493;43.344;26.226;2024-03-02T10:54:28;98895.06;;;14.49;83.50
22653;BME280;11493;43.344;26.226;2024-03-02T10:57:04;98895.66;;;14.30;83.42
22653;BME280;11493;43.344;26.226;2024-03-02T10:59:34;98899.13;;;14.27;82.32
22653;BME280;11493;43.344;26.226;2024-03-02T11:02:03;98889.69;;;14.28;83.56
22653;BME280;11493;43.344;26.226;2024-03-02T11:04:33;98894.16;;;14.33;83.00
22653;BME280;11493;43.344;26.226;2024-03-02T11:07:07;98894.72;;;14.51;82.90
22653;BME280;11493;43.344;26.226;2024-03-02T11:09:41;98879.97;;;14.74;81.35
22653;BME280;11493;43.344;26.226;2024-03-02T11:14:55;98874.34;;;14.87;81.40
22653;BME280;11493;43.344;26.226;2024-03-02T11:17:23;98863.97;;;14.68;82.46
22653;BME280;11493;43.344;26.226;2024-03-02T11:19:54;98883.22;;;14.92;81.56
22653;BME280;11493;43.344;26.226;2024-03-02T11:22:22;98876.91;;;15.23;78.51
22653;BME280;11493;43.344;26.226;2024-03-02T11:24:51;98882.97;;;15.13;77.57
22653;BME280;11493;43.344;26.226;2024-03-02T11:33:08;98878.28;;;14.86;78.64
22653;BME280;11493;43.344;26.226;2024-03-02T11:35:43;98873.22;;;15.03;77.83
22653;BME280;11493;43.344;26.226;2024-03-02T11:38:10;98866.44;;;15.17;76.90
22653;BME280;11493;43.344;26.226;2024-03-02T11:40:39;98863.56;;;14.97;76.03
22653;BME280;11493;43.344;26.226;2024-03-02T11:43:07;98856.63;;;14.60;77.47
22653;BME280;11493;43.344;26.226;2024-03-02T11:45:37;98868.34;;;14.69;77.27
22653;BME280;11493;43.344;26.226;2024-03-02T11:48:14;98863.09;;;14.79;76.37
22653;BME280;11493;43.344;26.226;2024-03-02T11:50:46;98861.16;;;14.52;77.96
22653;BME280;11493;43.344;26.226;2024-03-02T11:53:14;98860.09;;;14.85;75.99
22653;BME280;11493;43.344;26.226;2024-03-02T11:55:41;98863.00;;;14.76;76.30
22653;BME280;11493;43.344;26.226;2024-03-02T11:58:14;98858.22;;;14.61;76.59
22653;BME280;11493;43.344;26.226;2024-03-02T12:00:44;98851.84;;;14.44;77.72
22653;BME280;11493;43.344;26.226;2024-03-02T12:03:13;98842.44;;;14.61;76.71
22653;BME280;11493;43.344;26.226;2024-03-02T12:05:40;98839.72;;;14.37;77.95
22653;BME280;11493;43.344;26.226;2024-03-02T12:08:08;98858.63;;;14.47;77.71
22653;BME280;11493;43.344;26.226;2024-03-02T12:10:36;98856.56;;;14.72;76.22
22653;BME280;11493;43.344;26.226;2024-03-02T12:13:05;98856.00;;;14.66;77.13
22653;BME280;11493;43.344;26.226;2024-03-02T12:15:39;98839.97;;;14.44;78.46
22653;BME280;11493;43.344;26.226;2024-03-02T12:18:07;98847.31;;;14.52;77.44
22653;BME280;11493;43.344;26.226;2024-03-02T12:20:34;98848.81;;;14.77;77.09
22653;BME280;11493;43.344;26.226;2024-03-02T12:23:03;98840.34;;;15.02;75.10
22653;BME280;11493;43.344;26.226;2024-03-02T12:25:32;98848.75;;;15.05;74.11
22653;BME280;11493;43.344;26.226;2024-03-02T12:28:01;98854.38;;;15.25;73.70
22653;BME280;11493;43.344;26.226;2024-03-02T12:30:34;98852.50;;;15.44;72.46
22653;BME280;11493;43.344;26.226;2024-03-02T12:33:02;98841.88;;;15.47;72.27
22653;BME280;11493;43.344;26.226;2024-03-02T12:35:29;98842.13;;;15.41;71.94
22653;BME280;11493;43.344;26.226;2024-03-02T12:37:56;98837.06;;;15.59;72.16
22653;BME280;11493;43.344;26.226;2024-03-02T12:40:24;98837.56;;;15.65;72.47
22653;BME280;11493;43.344;26.226;2024-03-02T12:42:51;98839.41;;;15.76;71.65
22653;BME280;11493;43.344;26.226;2024-03-02T12:45:19;98832.75;;;15.97;70.94
22653;BME280;11493;43.344;26.226;2024-03-02T12:47:51;98828.91;;;16.21;69.77
22653;BME280;11493;43.344;26.226;2024-03-02T12:50:19;98825.88;;;15.91;71.46
22653;BME280;11493;43.344;26.226;2024-03-02T12:52:54;98831.47;;;16.29;68.91
22653;BME280;11493;43.344;26.226;2024-03-02T12:55:23;98827.31;;;16.20;69.00
22653;BME280;11493;43.344;26.226;2024-03-02T12:57:53;98826.06;;;16.17;69.43
22653;BME280;11493;43.344;26.226;2024-03-02T13:00:22;98837.59;;;16.19;69.91
22653;BME280;11493;43.344;26.226;2024-03-02T13:02:50;98828.69;;;16.10;69.87
22653;BME280;11493;43.344;26.226;2024-03-02T13:05:19;98831.63;;;16.17;69.11
22653;BME280;11493;43.344;26.226;2024-03-02T13:07:47;98829.06;;;16.28;68.75